sensor_id;sensor_type;location;lat;lon;timestamp;temperature;humidity
5868;DHT22;2960;49.142;7.768;2023-02-15T00:01:33;4.10;59.70
5868;DHT22;2960;49.142;7.768;2023-02-15T00:04:01;4.10;59.70
5868;DHT22;2960;49.142;7.768;2023-02-15T00:06:29;4.10;59.70
5868;DHT22;2960;49.142;7.768;2023-02-15T00:08:56;4.10;59.70
5868;DHT22;2960;49.142;7.768;2023-02-15T00:11:24;4.20;59.80
5868;DHT22;2960;49.142;7.768;2023-02-15T00:14:11;4.10;59.70
5868;DHT22;2960;49.142;7.768;2023-02-15T00:16:40;4.10;59.80
5868;DHT22;2960;49.142;7.768;2023-02-15T00:19:09;4.10;59.80
5868;DHT22;2960;49.142;7.768;2023-02-15T00:21:38;4.10;59.80
5868;DHT22;2960;49.142;7.768;2023-02-15T00:24:07;4.20;60.70
5868;DHT22;2960;49.142;7.768;2023-02-15T00:26:37;4.10;60.60
5868;DHT22;2960;49.142;7.768;2023-02-15T00:29:05;4.10;59.80
5868;DHT22;2960;49.142;7.768;2023-02-15T00:31:34;4.10;59.80
5868;DHT22;2960;49.142;7.768;2023-02-15T00:34:02;4.10;59.80
5868;DHT22;2960;49.142;7.768;2023-02-15T00:36:30;4.10;59.90
5868;DHT22;2960;49.142;7.768;2023-02-15T00:38:57;4.10;59.90
5868;DHT22;2960;49.142;7.768;2023-02-15T00:41:24;4.20;60.00
5868;DHT22;2960;49.142;7.768;2023-02-15T00:43:51;4.20;60.00
5868;DHT22;2960;49.142;7.768;2023-02-15T00:46:19;4.20;60.00
5868;DHT22;2960;49.142;7.768;2023-02-15T00:48:47;4.20;60.80
5868;DHT22;2960;49.142;7.768;2023-02-15T00:51:15;4.20;60.00
5868;DHT22;2960;49.142;7.768;2023-02-15T00:53:42;4.20;60.10
5868;DHT22;2960;49.142;7.768;2023-02-15T00:56:10;4.20;60.10
5868;DHT22;2960;49.142;7.768;2023-02-15T00:58:38;4.20;60.20
5868;DHT22;2960;49.142;7.768;2023-02-15T01:01:09;4.20;60.20
5868;DHT22;2960;49.142;7.768;2023-02-15T01:03:38;4.20;60.30
5868;DHT22;2960;49.142;7.768;2023-02-15T01:06:09;4.20;60.40
5868;DHT22;2960;49.142;7.768;2023-02-15T01:08:39;4.20;60.50
5868;DHT22;2960;49.142;7.768;2023-02-15T01:11:07;4.10;60.40
5868;DHT22;2960;49.142;7.768;2023-02-15T01:13:37;4.20;60.50
5868;DHT22;2960;49.142;7.768;2023-02-15T01:16:05;4.20;60.60
5868;DHT22;2960;49.142;7.768;2023-02-15T01:18:33;4.10;60.60
5868;DHT22;2960;49.142;7.768;2023-02-15T01:21:01;4.10;60.70
5868;DHT22;2960;49.142;7.768;2023-02-15T01:23:37;4.10;60.80
5868;DHT22;2960;49.142;7.768;2023-02-15T01:26:04;4.10;60.80
5868;DHT22;2960;49.142;7.768;2023-02-15T01:28:31;4.10;61.00
5868;DHT22;2960;49.142;7.768;2023-02-15T01:30:59;4.10;61.90
5868;DHT22;2960;49.142;7.768;2023-02-15T01:33:26;4.10;61.10
5868;DHT22;2960;49.142;7.768;2023-02-15T01:35:56;4.00;61.10
5868;DHT22;2960;49.142;7.768;2023-02-15T01:38:25;4.00;61.20
5868;DHT22;2960;49.142;7.768;2023-02-15T01:40:52;4.00;61.20
5868;DHT22;2960;49.142;7.768;2023-02-15T01:43:41;4.00;61.30
5868;DHT22;2960;49.142;7.768;2023-02-15T01:46:10;4.00;61.30
5868;DHT22;2960;49.142;7.768;2023-02-15T01:48:43;4.00;61.30
5868;DHT22;2960;49.142;7.768;2023-02-15T01:51:18;4.00;61.40
5868;DHT22;2960;49.142;7.768;2023-02-15T01:53:52;4.00;61.40
5868;DHT22;2960;49.142;7.768;2023-02-15T01:56:23;4.00;61.50
5868;DHT22;2960;49.142;7.768;2023-02-15T01:58:54;4.00;61.50
5868;DHT22;2960;49.142;7.768;2023-02-15T02:01:24;4.00;61.60
5868;DHT22;2960;49.142;7.768;2023-02-15T02:03:57;4.00;61.60
5868;DHT22;2960;49.142;7.768;2023-02-15T02:06:27;4.00;61.60
5868;DHT22;2960;49.142;7.768;2023-02-15T02:08:56;4.00;61.60
5868;DHT22;2960;49.142;7.768;2023-02-15T02:11:23;4.00;61.70
5868;DHT22;2960;49.142;7.768;2023-02-15T02:13:51;4.00;62.60
5868;DHT22;2960;49.142;7.768;2023-02-15T02:16:24;4.00;61.70
5868;DHT22;2960;49.142;7.768;2023-02-15T02:19:05;4.00;61.80
5868;DHT22;2960;49.142;7.768;2023-02-15T02:22:13;4.00;61.80
5868;DHT22;2960;49.142;7.768;2023-02-15T02:25:36;4.00;61.90
5868;DHT22;2960;49.142;7.768;2023-02-15T02:31:51;3.90;62.10
5868;DHT22;2960;49.142;7.768;2023-02-15T02:34:44;3.90;62.10
5868;DHT22;2960;49.142;7.768;2023-02-15T02:37:20;3.90;62.20
5868;DHT22;2960;49.142;7.768;2023-02-15T02:39:55;3.90;62.20
5868;DHT22;2960;49.142;7.768;2023-02-15T02:42:34;3.90;62.20
5868;DHT22;2960;49.142;7.768;2023-02-15T02:45:06;3.90;62.20
5868;DHT22;2960;49.142;7.768;2023-02-15T02:47:38;3.90;62.20
5868;DHT22;2960;49.142;7.768;2023-02-15T02:50:11;3.80;62.20
5868;DHT22;2960;49.142;7.768;2023-02-15T02:52:44;3.80;62.40
5868;DHT22;2960;49.142;7.768;2023-02-15T02:55:15;3.80;62.40
5868;DHT22;2960;49.142;7.768;2023-02-15T02:57:51;3.90;62.50
5868;DHT22;2960;49.142;7.768;2023-02-15T03:00:21;3.90;62.50
5868;DHT22;2960;49.142;7.768;2023-02-15T03:02:53;3.90;62.40
5868;DHT22;2960;49.142;7.768;2023-02-15T03:05:27;3.90;62.60
5868;DHT22;2960;49.142;7.768;2023-02-15T03:07:55;3.90;62.60
5868;DHT22;2960;49.142;7.768;2023-02-15T03:10:27;4.00;62.70
5868;DHT22;2960;49.142;7.768;2023-02-15T03:12:55;3.90;62.70
5868;DHT22;2960;49.142;7.768;2023-02-15T03:15:26;3.90;62.60
5868;DHT22;2960;49.142;7.768;2023-02-15T03:18:18;3.90;62.60
5868;DHT22;2960;49.142;7.768;2023-02-15T03:20:50;3.90;63.30
5868;DHT22;2960;49.142;7.768;2023-02-15T03:23:22;3.90;62.50
5868;DHT22;2960;49.142;7.768;2023-02-15T03:25:52;3.90;62.40
5868;DHT22;2960;49.142;7.768;2023-02-15T03:28:27;3.90;62.50
5868;DHT22;2960;49.142;7.768;2023-02-15T03:31:02;3.90;62.60
5868;DHT22;2960;49.142;7.768;2023-02-15T03:33:32;3.90;62.60
5868;DHT22;2960;49.142;7.768;2023-02-15T03:36:04;3.80;62.60
5868;DHT22;2960;49.142;7.768;2023-02-15T03:38:40;3.80;62.60
5868;DHT22;2960;49.142;7.768;2023-02-15T03:41:14;3.80;62.70
5868;DHT22;2960;49.142;7.768;2023-02-15T03:43:47;3.80;62.80
5868;DHT22;2960;49.142;7.768;2023-02-15T03:46:22;3.80;62.90
5868;DHT22;2960;49.142;7.768;2023-02-15T03:49:03;3.70;63.00
5868;DHT22;2960;49.142;7.768;2023-02-15T03:51:38;3.70;63.00
5868;DHT22;2960;49.142;7.768;2023-02-15T03:54:08;3.70;63.10
5868;DHT22;2960;49.142;7.768;2023-02-15T03:56:38;3.70;63.20
5868;DHT22;2960;49.142;7.768;2023-02-15T03:59:30;3.70;63.20
5868;DHT22;2960;49.142;7.768;2023-02-15T04:02:20;3.70;63.10
5868;DHT22;2960;49.142;7.768;2023-02-15T04:04:49;3.70;63.10
5868;DHT22;2960;49.142;7.768;2023-02-15T04:07:19;3.70;63.10
5868;DHT22;2960;49.142;7.768;2023-02-15T04:09:46;3.70;63.00
5868;DHT22;2960;49.142;7.768;2023-02-15T04:12:31;3.70;63.00
5868;DHT22;2960;49.142;7.768;2023-02-15T04:14:58;3.70;63.00
5868;DHT22;2960;49.142;7.768;2023-02-15T04:17:43;3.70;63.00
5868;DHT22;2960;49.142;7.768;2023-02-15T04:20:12;3.70;63.00
5868;DHT22;2960;49.142;7.768;2023-02-15T04:22:58;3.70;63.00
5868;DHT22;2960;49.142;7.768;2023-02-15T04:25:43;3.70;63.00
5868;DHT22;2960;49.142;7.768;2023-02-15T04:28:10;3.70;63.00
5868;DHT22;2960;49.142;7.768;2023-02-15T04:30:37;3.70;63.00
5868;DHT22;2960;49.142;7.768;2023-02-15T04:33:04;3.70;63.60
5868;DHT22;2960;49.142;7.768;2023-02-15T04:35:31;3.70;62.90
5868;DHT22;2960;49.142;7.768;2023-02-15T04:38:00;3.70;63.60
5868;DHT22;2960;49.142;7.768;2023-02-15T04:40:30;3.70;62.80
5868;DHT22;2960;49.142;7.768;2023-02-15T04:42:57;3.70;62.90
5868;DHT22;2960;49.142;7.768;2023-02-15T04:45:24;3.70;62.90
5868;DHT22;2960;49.142;7.768;2023-02-15T04:47:52;3.70;62.90
5868;DHT22;2960;49.142;7.768;2023-02-15T04:50:19;3.70;62.90
5868;DHT22;2960;49.142;7.768;2023-02-15T04:52:46;3.70;63.60
5868;DHT22;2960;49.142;7.768;2023-02-15T04:55:15;3.70;62.90
5868;DHT22;2960;49.142;7.768;2023-02-15T04:57:42;3.70;62.90
5868;DHT22;2960;49.142;7.768;2023-02-15T05:00:10;3.70;63.00
5868;DHT22;2960;49.142;7.768;2023-02-15T05:02:37;3.70;63.00
5868;DHT22;2960;49.142;7.768;2023-02-15T05:05:05;3.70;62.90
5868;DHT22;2960;49.142;7.768;2023-02-15T05:07:32;3.70;63.00
5868;DHT22;2960;49.142;7.768;2023-02-15T05:09:59;3.70;63.00
5868;DHT22;2960;49.142;7.768;2023-02-15T05:12:28;3.70;63.00
5868;DHT22;2960;49.142;7.768;2023-02-15T05:14:55;3.70;63.10
5868;DHT22;2960;49.142;7.768;2023-02-15T05:17:22;3.70;63.10
5868;DHT22;2960;49.142;7.768;2023-02-15T05:19:52;3.70;63.90
5868;DHT22;2960;49.142;7.768;2023-02-15T05:22:19;3.70;63.10
5868;DHT22;2960;49.142;7.768;2023-02-15T05:24:49;3.60;63.10
5868;DHT22;2960;49.142;7.768;2023-02-15T05:27:34;3.60;63.20
5868;DHT22;2960;49.142;7.768;2023-02-15T05:30:19;3.60;63.30
5868;DHT22;2960;49.142;7.768;2023-02-15T05:32:46;3.60;63.40
5868;DHT22;2960;49.142;7.768;2023-02-15T05:35:15;3.50;63.30
5868;DHT22;2960;49.142;7.768;2023-02-15T05:37:42;3.60;63.40
5868;DHT22;2960;49.142;7.768;2023-02-15T05:40:10;3.60;63.40
5868;DHT22;2960;49.142;7.768;2023-02-15T05:42:39;3.60;63.40
5868;DHT22;2960;49.142;7.768;2023-02-15T05:45:08;3.60;64.10
5868;DHT22;2960;49.142;7.768;2023-02-15T05:47:36;3.60;63.40
5868;DHT22;2960;49.142;7.768;2023-02-15T05:50:03;3.60;63.30
5868;DHT22;2960;49.142;7.768;2023-02-15T05:52:32;3.60;63.40
5868;DHT22;2960;49.142;7.768;2023-02-15T05:54:59;3.60;63.40
5868;DHT22;2960;49.142;7.768;2023-02-15T05:57:28;3.60;63.30
5868;DHT22;2960;49.142;7.768;2023-02-15T05:59:56;3.60;63.30
5868;DHT22;2960;49.142;7.768;2023-02-15T06:02:23;3.60;63.30
5868;DHT22;2960;49.142;7.768;2023-02-15T06:04:50;3.60;63.30
5868;DHT22;2960;49.142;7.768;2023-02-15T06:07:17;3.60;63.30
5868;DHT22;2960;49.142;7.768;2023-02-15T06:09:44;3.60;63.30
5868;DHT22;2960;49.142;7.768;2023-02-15T06:12:11;3.50;63.30
5868;DHT22;2960;49.142;7.768;2023-02-15T06:14:38;3.50;63.30
5868;DHT22;2960;49.142;7.768;2023-02-15T06:17:09;3.50;63.30
5868;DHT22;2960;49.142;7.768;2023-02-15T06:19:36;3.50;63.30
5868;DHT22;2960;49.142;7.768;2023-02-15T06:22:03;3.50;63.30
5868;DHT22;2960;49.142;7.768;2023-02-15T06:24:32;3.60;63.50
5868;DHT22;2960;49.142;7.768;2023-02-15T06:26:59;3.60;63.40
5868;DHT22;2960;49.142;7.768;2023-02-15T06:29:26;3.60;63.40
5868;DHT22;2960;49.142;7.768;2023-02-15T06:31:53;3.60;63.40
5868;DHT22;2960;49.142;7.768;2023-02-15T06:34:21;3.60;63.40
5868;DHT22;2960;49.142;7.768;2023-02-15T06:36:48;3.60;63.40
5868;DHT22;2960;49.142;7.768;2023-02-15T06:39:16;3.60;63.40
5868;DHT22;2960;49.142;7.768;2023-02-15T06:41:45;3.50;63.40
5868;DHT22;2960;49.142;7.768;2023-02-15T06:44:13;3.50;63.50
5868;DHT22;2960;49.142;7.768;2023-02-15T06:46:40;3.50;63.40
5868;DHT22;2960;49.142;7.768;2023-02-15T06:49:07;3.50;63.50
5868;DHT22;2960;49.142;7.768;2023-02-15T06:51:36;3.40;64.20
5868;DHT22;2960;49.142;7.768;2023-02-15T06:54:03;3.40;63.50
5868;DHT22;2960;49.142;7.768;2023-02-15T06:56:30;3.40;63.60
5868;DHT22;2960;49.142;7.768;2023-02-15T06:58:57;3.40;63.60
5868;DHT22;2960;49.142;7.768;2023-02-15T07:01:24;3.40;63.60
5868;DHT22;2960;49.142;7.768;2023-02-15T07:03:51;3.40;63.50
5868;DHT22;2960;49.142;7.768;2023-02-15T07:06:18;3.50;63.60
5868;DHT22;2960;49.142;7.768;2023-02-15T07:08:47;3.50;63.60
5868;DHT22;2960;49.142;7.768;2023-02-15T07:11:14;3.50;63.60
5868;DHT22;2960;49.142;7.768;2023-02-15T07:13:59;3.50;63.60
5868;DHT22;2960;49.142;7.768;2023-02-15T07:16:26;3.50;63.60
5868;DHT22;2960;49.142;7.768;2023-02-15T07:18:53;3.50;63.50
5868;DHT22;2960;49.142;7.768;2023-02-15T07:21:20;3.50;63.60
5868;DHT22;2960;49.142;7.768;2023-02-15T07:23:49;3.50;63.50
5868;DHT22;2960;49.142;7.768;2023-02-15T07:26:16;3.50;63.50
5868;DHT22;2960;49.142;7.768;2023-02-15T07:28:43;3.50;63.50
5868;DHT22;2960;49.142;7.768;2023-02-15T07:31:10;3.50;63.50
5868;DHT22;2960;49.142;7.768;2023-02-15T07:33:38;3.50;63.50
5868;DHT22;2960;49.142;7.768;2023-02-15T07:36:05;3.50;63.50
5868;DHT22;2960;49.142;7.768;2023-02-15T07:38:36;3.60;63.60
5868;DHT22;2960;49.142;7.768;2023-02-15T07:41:06;3.60;63.60
5868;DHT22;2960;49.142;7.768;2023-02-15T07:43:36;3.60;63.60
5868;DHT22;2960;49.142;7.768;2023-02-15T07:46:06;3.60;63.50
5868;DHT22;2960;49.142;7.768;2023-02-15T07:48:35;3.60;63.50
5868;DHT22;2960;49.142;7.768;2023-02-15T07:51:04;3.60;63.50
5868;DHT22;2960;49.142;7.768;2023-02-15T07:53:32;3.60;63.40
5868;DHT22;2960;49.142;7.768;2023-02-15T07:56:00;3.60;63.40
5868;DHT22;2960;49.142;7.768;2023-02-15T07:58:29;3.60;63.30
5868;DHT22;2960;49.142;7.768;2023-02-15T08:01:10;3.70;64.10
5868;DHT22;2960;49.142;7.768;2023-02-15T08:03:37;3.70;63.40
5868;DHT22;2960;49.142;7.768;2023-02-15T08:06:04;3.70;64.10
5868;DHT22;2960;49.142;7.768;2023-02-15T08:08:33;3.70;63.40
5868;DHT22;2960;49.142;7.768;2023-02-15T08:11:03;3.70;63.40
5868;DHT22;2960;49.142;7.768;2023-02-15T08:13:50;3.70;63.40
5868;DHT22;2960;49.142;7.768;2023-02-15T08:16:26;3.70;63.40
5868;DHT22;2960;49.142;7.768;2023-02-15T08:18:56;3.70;63.40
5868;DHT22;2960;49.142;7.768;2023-02-15T08:21:26;3.70;63.40
5868;DHT22;2960;49.142;7.768;2023-02-15T08:23:55;3.80;63.40
5868;DHT22;2960;49.142;7.768;2023-02-15T08:26:22;3.80;63.40
5868;DHT22;2960;49.142;7.768;2023-02-15T08:28:51;3.80;63.40
5868;DHT22;2960;49.142;7.768;2023-02-15T08:31:19;3.80;63.30
5868;DHT22;2960;49.142;7.768;2023-02-15T08:33:48;3.80;63.30
5868;DHT22;2960;49.142;7.768;2023-02-15T08:36:17;3.80;63.30
5868;DHT22;2960;49.142;7.768;2023-02-15T08:38:45;3.90;63.40
5868;DHT22;2960;49.142;7.768;2023-02-15T08:41:14;3.90;63.30
5868;DHT22;2960;49.142;7.768;2023-02-15T08:43:45;3.90;63.30
5868;DHT22;2960;49.142;7.768;2023-02-15T08:46:15;3.90;64.10
5868;DHT22;2960;49.142;7.768;2023-02-15T08:48:43;3.80;63.40
5868;DHT22;2960;49.142;7.768;2023-02-15T08:51:12;3.80;63.50
5868;DHT22;2960;49.142;7.768;2023-02-15T08:53:41;3.70;63.60
5868;DHT22;2960;49.142;7.768;2023-02-15T08:56:10;3.70;63.70
5868;DHT22;2960;49.142;7.768;2023-02-15T08:58:38;3.70;63.70
5868;DHT22;2960;49.142;7.768;2023-02-15T09:01:09;3.80;63.80
5868;DHT22;2960;49.142;7.768;2023-02-15T09:03:39;3.80;63.80
5868;DHT22;2960;49.142;7.768;2023-02-15T09:06:06;3.80;63.80
5868;DHT22;2960;49.142;7.768;2023-02-15T09:08:33;3.80;63.60
5868;DHT22;2960;49.142;7.768;2023-02-15T09:11:08;3.90;63.60
5868;DHT22;2960;49.142;7.768;2023-02-15T09:13:36;3.90;63.60
5868;DHT22;2960;49.142;7.768;2023-02-15T09:16:05;3.90;63.50
5868;DHT22;2960;49.142;7.768;2023-02-15T09:18:35;4.00;63.60
5868;DHT22;2960;49.142;7.768;2023-02-15T09:21:06;4.00;63.60
5868;DHT22;2960;49.142;7.768;2023-02-15T09:23:35;4.00;63.50
5868;DHT22;2960;49.142;7.768;2023-02-15T09:26:06;4.10;63.60
5868;DHT22;2960;49.142;7.768;2023-02-15T09:28:37;4.10;63.60
5868;DHT22;2960;49.142;7.768;2023-02-15T09:31:07;4.10;63.60
5868;DHT22;2960;49.142;7.768;2023-02-15T09:33:38;4.10;63.60
5868;DHT22;2960;49.142;7.768;2023-02-15T09:36:14;4.10;64.40
5868;DHT22;2960;49.142;7.768;2023-02-15T09:38:42;4.10;63.70
5868;DHT22;2960;49.142;7.768;2023-02-15T09:41:24;4.10;63.80
5868;DHT22;2960;49.142;7.768;2023-02-15T09:44:25;4.10;63.80
5868;DHT22;2960;49.142;7.768;2023-02-15T09:47:18;4.10;63.90
5868;DHT22;2960;49.142;7.768;2023-02-15T09:49:58;4.20;64.00
5868;DHT22;2960;49.142;7.768;2023-02-15T09:52:48;4.20;64.00
5868;DHT22;2960;49.142;7.768;2023-02-15T09:55:32;4.20;63.90
5868;DHT22;2960;49.142;7.768;2023-02-15T09:58:10;4.20;63.90
5868;DHT22;2960;49.142;7.768;2023-02-15T10:00:48;4.20;64.00
5868;DHT22;2960;49.142;7.768;2023-02-15T10:03:36;4.20;64.00
5868;DHT22;2960;49.142;7.768;2023-02-15T10:06:32;4.20;64.10
5868;DHT22;2960;49.142;7.768;2023-02-15T10:09:26;4.20;64.20
5868;DHT22;2960;49.142;7.768;2023-02-15T10:12:11;4.20;64.20
5868;DHT22;2960;49.142;7.768;2023-02-15T10:18:11;4.30;64.20
5868;DHT22;2960;49.142;7.768;2023-02-15T10:20:54;4.30;64.30
5868;DHT22;2960;49.142;7.768;2023-02-15T10:23:50;4.30;64.30
5868;DHT22;2960;49.142;7.768;2023-02-15T10:26:30;4.40;64.30
5868;DHT22;2960;49.142;7.768;2023-02-15T10:29:04;4.40;64.40
5868;DHT22;2960;49.142;7.768;2023-02-15T10:31:37;4.50;64.40
5868;DHT22;2960;49.142;7.768;2023-02-15T10:34:15;4.50;64.30
5868;DHT22;2960;49.142;7.768;2023-02-15T10:40:08;4.60;64.20
5868;DHT22;2960;49.142;7.768;2023-02-15T10:42:48;4.70;64.20
5868;DHT22;2960;49.142;7.768;2023-02-15T10:45:28;4.70;64.20
5868;DHT22;2960;49.142;7.768;2023-02-15T10:51:33;4.80;64.10
5868;DHT22;2960;49.142;7.768;2023-02-15T10:54:17;4.90;64.10
5868;DHT22;2960;49.142;7.768;2023-02-15T10:56:58;4.90;64.00
5868;DHT22;2960;49.142;7.768;2023-02-15T10:59:45;5.00;64.10
5868;DHT22;2960;49.142;7.768;2023-02-15T11:02:24;5.00;64.10
5868;DHT22;2960;49.142;7.768;2023-02-15T11:05:15;5.10;64.10
5868;DHT22;2960;49.142;7.768;2023-02-15T11:07:59;5.20;64.20
5868;DHT22;2960;49.142;7.768;2023-02-15T11:10:31;5.20;64.10
5868;DHT22;2960;49.142;7.768;2023-02-15T11:13:08;5.30;64.20
5868;DHT22;2960;49.142;7.768;2023-02-15T11:15:40;5.30;64.10
5868;DHT22;2960;49.142;7.768;2023-02-15T11:18:13;5.40;64.10
5868;DHT22;2960;49.142;7.768;2023-02-15T11:20:46;5.40;64.00
5868;DHT22;2960;49.142;7.768;2023-02-15T11:23:17;5.50;64.10
5868;DHT22;2960;49.142;7.768;2023-02-15T11:25:47;5.60;64.10
5868;DHT22;2960;49.142;7.768;2023-02-15T11:28:26;5.60;64.10
5868;DHT22;2960;49.142;7.768;2023-02-15T11:30:58;5.70;65.00
5868;DHT22;2960;49.142;7.768;2023-02-15T11:33:31;5.80;64.30
5868;DHT22;2960;49.142;7.768;2023-02-15T11:36:06;5.80;64.10
5868;DHT22;2960;49.142;7.768;2023-02-15T11:38:36;5.90;64.20
5868;DHT22;2960;49.142;7.768;2023-02-15T11:41:09;6.00;64.20
5868;DHT22;2960;49.142;7.768;2023-02-15T11:43:42;6.10;64.10
5868;DHT22;2960;49.142;7.768;2023-02-15T11:46:12;6.20;64.90
5868;DHT22;2960;49.142;7.768;2023-02-15T11:48:41;6.30;64.10
5868;DHT22;2960;49.142;7.768;2023-02-15T11:51:11;6.40;64.10
5868;DHT22;2960;49.142;7.768;2023-02-15T11:53:42;6.50;64.00
5868;DHT22;2960;49.142;7.768;2023-02-15T11:56:14;6.60;64.00
5868;DHT22;2960;49.142;7.768;2023-02-15T11:58:50;6.60;64.60
5868;DHT22;2960;49.142;7.768;2023-02-15T12:01:23;6.70;63.90
5868;DHT22;2960;49.142;7.768;2023-02-15T12:03:55;6.80;64.30
5868;DHT22;2960;49.142;7.768;2023-02-15T12:06:27;7.00;64.60
5868;DHT22;2960;49.142;7.768;2023-02-15T12:09:01;7.20;64.50
5868;DHT22;2960;49.142;7.768;2023-02-15T12:11:35;7.50;64.70
5868;DHT22;2960;49.142;7.768;2023-02-15T12:14:05;7.70;64.60
5868;DHT22;2960;49.142;7.768;2023-02-15T12:16:42;8.10;64.70
5868;DHT22;2960;49.142;7.768;2023-02-15T12:19:24;8.50;64.90
5868;DHT22;2960;49.142;7.768;2023-02-15T12:21:59;9.00;65.00
5868;DHT22;2960;49.142;7.768;2023-02-15T12:24:30;9.50;65.10
5868;DHT22;2960;49.142;7.768;2023-02-15T12:27:02;10.10;63.80
5868;DHT22;2960;49.142;7.768;2023-02-15T12:29:39;10.70;63.40
5868;DHT22;2960;49.142;7.768;2023-02-15T12:32:11;11.30;62.80
5868;DHT22;2960;49.142;7.768;2023-02-15T12:34:45;11.80;62.10
5868;DHT22;2960;49.142;7.768;2023-02-15T12:37:16;12.20;62.00
5868;DHT22;2960;49.142;7.768;2023-02-15T12:39:55;12.60;61.10
5868;DHT22;2960;49.142;7.768;2023-02-15T12:42:23;13.10;60.50
5868;DHT22;2960;49.142;7.768;2023-02-15T12:44:59;13.40;59.80
5868;DHT22;2960;49.142;7.768;2023-02-15T12:47:27;13.80;59.50
5868;DHT22;2960;49.142;7.768;2023-02-15T12:50:13;14.10;59.10
5868;DHT22;2960;49.142;7.768;2023-02-15T12:52:45;14.30;58.50
5868;DHT22;2960;49.142;7.768;2023-02-15T12:55:26;14.60;58.10
5868;DHT22;2960;49.142;7.768;2023-02-15T12:58:06;14.80;57.60
5868;DHT22;2960;49.142;7.768;2023-02-15T13:00:35;14.90;57.20
5868;DHT22;2960;49.142;7.768;2023-02-15T13:03:03;15.10;56.90
5868;DHT22;2960;49.142;7.768;2023-02-15T13:05:33;15.20;56.70
5868;DHT22;2960;49.142;7.768;2023-02-15T13:08:08;15.30;56.30
5868;DHT22;2960;49.142;7.768;2023-02-15T13:10:40;15.30;55.90
5868;DHT22;2960;49.142;7.768;2023-02-15T13:13:19;15.30;55.60
5868;DHT22;2960;49.142;7.768;2023-02-15T13:15:50;15.30;55.50
5868;DHT22;2960;49.142;7.768;2023-02-15T13:18:30;15.30;55.50
5868;DHT22;2960;49.142;7.768;2023-02-15T13:21:04;15.30;55.30
5868;DHT22;2960;49.142;7.768;2023-02-15T13:23:38;15.30;55.10
5868;DHT22;2960;49.142;7.768;2023-02-15T13:26:11;15.30;54.90
5868;DHT22;2960;49.142;7.768;2023-02-15T13:28:45;15.30;54.70
5868;DHT22;2960;49.142;7.768;2023-02-15T13:31:18;15.30;54.70
5868;DHT22;2960;49.142;7.768;2023-02-15T13:33:49;15.30;54.50
5868;DHT22;2960;49.142;7.768;2023-02-15T13:36:23;15.30;54.30
5868;DHT22;2960;49.142;7.768;2023-02-15T13:39:02;15.40;54.30
5868;DHT22;2960;49.142;7.768;2023-02-15T13:41:41;15.40;54.10
5868;DHT22;2960;49.142;7.768;2023-02-15T13:44:23;15.40;53.80
5868;DHT22;2960;49.142;7.768;2023-02-15T13:47:07;15.50;53.70
5868;DHT22;2960;49.142;7.768;2023-02-15T13:49:52;15.50;53.60
5868;DHT22;2960;49.142;7.768;2023-02-15T13:52:37;15.50;53.40
5868;DHT22;2960;49.142;7.768;2023-02-15T13:55:36;15.50;53.10
5868;DHT22;2960;49.142;7.768;2023-02-15T13:58:35;15.60;53.10
5868;DHT22;2960;49.142;7.768;2023-02-15T14:01:20;15.60;52.90
5868;DHT22;2960;49.142;7.768;2023-02-15T14:04:17;15.60;52.70
5868;DHT22;2960;49.142;7.768;2023-02-15T14:07:19;15.70;52.60
5868;DHT22;2960;49.142;7.768;2023-02-15T14:10:01;15.80;52.60
5868;DHT22;2960;49.142;7.768;2023-02-15T14:12:48;15.80;52.40
5868;DHT22;2960;49.142;7.768;2023-02-15T14:15:31;15.80;52.30
5868;DHT22;2960;49.142;7.768;2023-02-15T14:18:10;15.90;52.20
5868;DHT22;2960;49.142;7.768;2023-02-15T14:20:51;15.90;52.00
5868;DHT22;2960;49.142;7.768;2023-02-15T14:23:35;16.00;51.80
5868;DHT22;2960;49.142;7.768;2023-02-15T14:26:15;16.00;51.70
5868;DHT22;2960;49.142;7.768;2023-02-15T14:28:54;16.10;51.60
5868;DHT22;2960;49.142;7.768;2023-02-15T14:31:28;16.10;51.50
5868;DHT22;2960;49.142;7.768;2023-02-15T14:33:57;16.10;51.30
5868;DHT22;2960;49.142;7.768;2023-02-15T14:36:27;16.20;51.20
5868;DHT22;2960;49.142;7.768;2023-02-15T14:39:02;16.20;51.00
5868;DHT22;2960;49.142;7.768;2023-02-15T14:41:58;16.20;51.00
5868;DHT22;2960;49.142;7.768;2023-02-15T14:44:31;16.20;51.10
5868;DHT22;2960;49.142;7.768;2023-02-15T14:47:04;16.20;51.10
5868;DHT22;2960;49.142;7.768;2023-02-15T14:49:37;16.30;51.20
5868;DHT22;2960;49.142;7.768;2023-02-15T14:52:08;16.30;51.30
5868;DHT22;2960;49.142;7.768;2023-02-15T14:54:59;16.30;51.30
5868;DHT22;2960;49.142;7.768;2023-02-15T14:57:31;16.30;52.00
5868;DHT22;2960;49.142;7.768;2023-02-15T15:00:00;16.20;51.30
5868;DHT22;2960;49.142;7.768;2023-02-15T15:02:44;16.20;51.40
5868;DHT22;2960;49.142;7.768;2023-02-15T15:05:18;16.10;51.50
5868;DHT22;2960;49.142;7.768;2023-02-15T15:07:50;16.00;51.50
5868;DHT22;2960;49.142;7.768;2023-02-15T15:10:43;15.80;51.60
5868;DHT22;2960;49.142;7.768;2023-02-15T15:13:37;15.70;51.80
5868;DHT22;2960;49.142;7.768;2023-02-15T15:22:35;15.20;52.20
5868;DHT22;2960;49.142;7.768;2023-02-15T15:25:08;14.90;52.20
5868;DHT22;2960;49.142;7.768;2023-02-15T15:27:48;14.80;52.40
5868;DHT22;2960;49.142;7.768;2023-02-15T15:37:23;14.20;52.90
5868;DHT22;2960;49.142;7.768;2023-02-15T15:40:40;13.90;53.00
5868;DHT22;2960;49.142;7.768;2023-02-15T15:43:34;13.70;53.20
5868;DHT22;2960;49.142;7.768;2023-02-15T15:49:47;13.20;53.30
5868;DHT22;2960;49.142;7.768;2023-02-15T15:52:15;13.00;54.20
5868;DHT22;2960;49.142;7.768;2023-02-15T15:54:46;12.80;53.70
5868;DHT22;2960;49.142;7.768;2023-02-15T15:57:27;12.60;53.80
5868;DHT22;2960;49.142;7.768;2023-02-15T15:59:56;12.40;53.90
5868;DHT22;2960;49.142;7.768;2023-02-15T16:02:25;12.20;54.10
5868;DHT22;2960;49.142;7.768;2023-02-15T16:04:53;12.10;54.20
5868;DHT22;2960;49.142;7.768;2023-02-15T16:07:35;12.00;54.20
5868;DHT22;2960;49.142;7.768;2023-02-15T16:10:04;11.80;54.30
5868;DHT22;2960;49.142;7.768;2023-02-15T16:12:35;11.70;54.40
5868;DHT22;2960;49.142;7.768;2023-02-15T16:15:13;11.60;54.50
5868;DHT22;2960;49.142;7.768;2023-02-15T16:17:41;11.40;54.50
5868;DHT22;2960;49.142;7.768;2023-02-15T16:20:16;11.30;54.70
5868;DHT22;2960;49.142;7.768;2023-02-15T16:22:45;11.20;54.80
5868;DHT22;2960;49.142;7.768;2023-02-15T16:25:31;11.10;54.90
5868;DHT22;2960;49.142;7.768;2023-02-15T16:28:10;11.00;54.90
5868;DHT22;2960;49.142;7.768;2023-02-15T16:30:39;10.80;55.00
5868;DHT22;2960;49.142;7.768;2023-02-15T16:33:09;10.80;55.10
5868;DHT22;2960;49.142;7.768;2023-02-15T16:35:40;10.60;55.10
5868;DHT22;2960;49.142;7.768;2023-02-15T16:38:09;10.50;55.20
5868;DHT22;2960;49.142;7.768;2023-02-15T16:40:45;10.40;55.30
5868;DHT22;2960;49.142;7.768;2023-02-15T16:43:18;10.40;55.40
5868;DHT22;2960;49.142;7.768;2023-02-15T16:45:47;10.30;55.40
5868;DHT22;2960;49.142;7.768;2023-02-15T16:48:20;10.20;55.40
5868;DHT22;2960;49.142;7.768;2023-02-15T16:50:51;10.20;55.60
5868;DHT22;2960;49.142;7.768;2023-02-15T16:53:23;10.10;55.50
5868;DHT22;2960;49.142;7.768;2023-02-15T16:55:57;10.00;55.60
5868;DHT22;2960;49.142;7.768;2023-02-15T16:58:30;10.00;55.70
5868;DHT22;2960;49.142;7.768;2023-02-15T17:01:03;9.90;56.50
5868;DHT22;2960;49.142;7.768;2023-02-15T17:03:33;9.80;56.60
5868;DHT22;2960;49.142;7.768;2023-02-15T17:06:03;9.80;56.70
5868;DHT22;2960;49.142;7.768;2023-02-15T17:08:33;9.70;56.70
5868;DHT22;2960;49.142;7.768;2023-02-15T17:11:20;9.60;56.80
5868;DHT22;2960;49.142;7.768;2023-02-15T17:14:12;9.50;56.90
5868;DHT22;2960;49.142;7.768;2023-02-15T17:16:51;9.40;57.00
5868;DHT22;2960;49.142;7.768;2023-02-15T17:19:22;9.30;57.10
5868;DHT22;2960;49.142;7.768;2023-02-15T17:21:53;9.20;57.10
5868;DHT22;2960;49.142;7.768;2023-02-15T17:24:31;9.20;57.20
5868;DHT22;2960;49.142;7.768;2023-02-15T17:27:05;9.10;57.10